createdAt,value
2022-10-29T00:00:32.688Z,12.10
2022-10-29T00:03:03.505Z,12.10
2022-10-29T00:05:33.569Z,12.20
2022-10-29T00:08:04.071Z,12.30
2022-10-29T00:10:36.486Z,12.50
2022-10-29T00:13:09.713Z,12.70
2022-10-29T00:15:43.540Z,12.90
2022-10-29T00:18:18.634Z,12.90
2022-10-29T00:20:48.562Z,12.70
2022-10-29T00:23:19.254Z,12.60
2022-10-29T00:25:49.400Z,12.60
2022-10-29T00:28:21.954Z,12.50
2022-10-29T00:30:52.687Z,12.60
2022-10-29T00:33:23.052Z,12.50
2022-10-29T00:36:04.560Z,12.30
2022-10-29T00:38:37.499Z,12.30
2022-10-29T00:41:09.527Z,12.30
2022-10-29T00:43:47.827Z,12.30
2022-10-29T00:46:24.523Z,12.30
2022-10-29T00:48:57.359Z,12.20
2022-10-29T00:51:34.066Z,12.20
2022-10-29T00:54:07.970Z,12.20
2022-10-29T00:56:42.670Z,12.40
2022-10-29T00:59:20.095Z,12.40
2022-10-29T01:01:52.151Z,12.50
2022-10-29T01:04:23.436Z,12.40
2022-10-29T01:06:59.292Z,12.50
2022-10-29T01:09:30.600Z,12.60
2022-10-29T01:12:16.286Z,12.60
2022-10-29T01:15:01.136Z,12.70
2022-10-29T01:17:40.137Z,12.70
2022-10-29T01:20:35.206Z,12.70
2022-10-29T01:23:25.809Z,12.80
2022-10-29T01:26:23.902Z,12.90
2022-10-29T01:29:13.262Z,12.90
2022-10-29T01:31:53.094Z,12.90
2022-10-29T01:34:30.999Z,12.80
2022-10-29T01:37:08.711Z,12.80
2022-10-29T01:39:44.517Z,12.70
2022-10-29T01:42:18.955Z,12.70
2022-10-29T01:44:54.386Z,12.70
2022-10-29T01:47:31.717Z,12.60
2022-10-29T01:50:05.119Z,12.50
2022-10-29T01:52:39.481Z,12.40
2022-10-29T02:00:57.779Z,12.20
2022-10-29T02:03:44.032Z,12.10
2022-10-29T02:06:23.511Z,12.00
2022-10-29T02:09:01.881Z,12.20
2022-10-29T02:11:44.104Z,12.30
2022-10-29T02:14:19.183Z,12.30
2022-10-29T02:16:51.308Z,12.20
2022-10-29T02:19:23.863Z,12.00
2022-10-29T02:21:54.389Z,12.00
2022-10-29T02:24:24.770Z,12.00
2022-10-29T02:26:56.979Z,12.00
2022-10-29T02:29:26.882Z,12.10
2022-10-29T02:31:57.323Z,12.10
2022-10-29T02:34:29.891Z,12.10
2022-10-29T02:37:00.379Z,12.30
2022-10-29T02:39:30.855Z,12.40
2022-10-29T02:42:01.049Z,12.40
2022-10-29T02:44:31.002Z,12.40
2022-10-29T02:47:01.871Z,12.40
2022-10-29T02:49:35.040Z,12.30
2022-10-29T02:52:05.673Z,12.40
2022-10-29T02:54:35.577Z,12.40
2022-10-29T02:57:07.593Z,12.40
2022-10-29T02:59:37.471Z,12.40
2022-10-29T03:02:08.372Z,12.40
2022-10-29T03:04:41.634Z,12.30
2022-10-29T03:07:12.213Z,12.30
2022-10-29T03:09:42.092Z,12.30
2022-10-29T03:12:12.485Z,12.40
2022-10-29T03:14:42.776Z,12.50
2022-10-29T03:17:15.249Z,12.60
2022-10-29T03:19:47.709Z,12.50
2022-10-29T03:22:17.645Z,12.50
2022-10-29T03:24:47.562Z,12.60
2022-10-29T03:27:18.015Z,12.60
2022-10-29T03:29:47.936Z,12.70
2022-10-29T03:32:18.603Z,12.70
2022-10-29T03:34:54.746Z,12.70
2022-10-29T03:37:27.940Z,12.60
2022-10-29T03:39:57.904Z,12.70
2022-10-29T03:42:28.233Z,12.70
2022-10-29T03:44:58.165Z,12.70
2022-10-29T03:47:28.637Z,12.70
2022-10-29T03:50:04.423Z,12.80
2022-10-29T03:52:34.995Z,12.80
2022-10-29T03:55:05.422Z,12.80
2022-10-29T03:57:36.072Z,12.80
2022-10-29T04:00:07.623Z,12.80
2022-10-29T04:02:43.785Z,12.90
2022-10-29T04:05:16.538Z,12.80
2022-10-29T04:07:47.301Z,12.80
2022-10-29T04:10:17.378Z,12.80
2022-10-29T04:12:48.964Z,12.90
2022-10-29T04:15:19.012Z,13.00
2022-10-29T04:17:52.931Z,13.00
2022-10-29T04:21:03.162Z,13.00
2022-10-29T04:26:34.663Z,13.10
2022-10-29T04:28:58.636Z,13.30
2022-10-29T04:31:30.793Z,13.50
2022-10-29T04:34:01.418Z,13.60
2022-10-29T04:36:33.917Z,13.80
2022-10-29T04:39:04.893Z,13.80
2022-10-29T04:41:35.117Z,13.80
2022-10-29T04:44:05.838Z,13.80
2022-10-29T04:46:35.775Z,13.80
2022-10-29T04:49:08.999Z,13.80
2022-10-29T04:51:41.554Z,13.80
2022-10-29T04:54:12.124Z,13.80
2022-10-29T04:56:42.037Z,13.70
2022-10-29T04:59:13.009Z,13.70
2022-10-29T05:01:42.973Z,13.60
2022-10-29T05:04:13.526Z,13.60
2022-10-29T05:06:46.049Z,13.50
2022-10-29T05:09:19.336Z,13.50
2022-10-29T05:11:49.296Z,13.50
2022-10-29T05:14:20.021Z,13.50
2022-10-29T05:16:50.518Z,13.50
2022-10-29T05:19:21.692Z,13.50
2022-10-29T05:21:54.834Z,13.40
2022-10-29T05:24:25.054Z,13.40
2022-10-29T05:26:55.737Z,13.40
2022-10-29T05:29:26.333Z,13.30
2022-10-29T05:31:57.289Z,13.30
2022-10-29T05:34:27.344Z,13.30
2022-10-29T05:37:00.898Z,13.20
2022-10-29T05:39:33.658Z,13.10
2022-10-29T05:42:04.012Z,13.10
2022-10-29T05:44:34.115Z,13.00
2022-10-29T05:47:04.440Z,13.00
2022-10-29T05:49:34.373Z,12.90
2022-10-29T05:52:07.740Z,12.80
2022-10-29T05:54:37.993Z,12.80
2022-10-29T05:57:10.439Z,12.80
2022-10-29T05:59:40.409Z,12.60
2022-10-29T06:02:12.226Z,12.60
2022-10-29T06:04:42.227Z,12.30
2022-10-29T06:07:15.426Z,12.30
2022-10-29T06:09:45.326Z,12.20
2022-10-29T06:12:16.512Z,12.20
2022-10-29T06:14:48.361Z,12.10
2022-10-29T06:17:18.887Z,12.10
2022-10-29T06:19:48.868Z,12.10
2022-10-29T06:22:21.885Z,12.10
2022-10-29T06:24:51.817Z,12.10
2022-10-29T06:27:22.306Z,12.00
2022-10-29T06:29:53.027Z,12.20
2022-10-29T06:32:23.520Z,12.10
2022-10-29T06:34:55.743Z,12.00
2022-10-29T06:37:30.094Z,12.00
2022-10-29T06:40:00.101Z,12.00
2022-10-29T06:42:30.799Z,12.10
2022-10-29T06:45:00.711Z,12.10
2022-10-29T06:47:31.019Z,12.10
2022-10-29T06:50:01.819Z,12.10
2022-10-29T06:52:34.913Z,12.20
2022-10-29T06:55:05.081Z,12.20
2022-10-29T06:57:35.852Z,12.30
2022-10-29T07:00:08.514Z,12.30
2022-10-29T07:02:38.853Z,12.40
2022-10-29T07:05:12.063Z,12.30
2022-10-29T07:07:45.312Z,12.30
2022-10-29T07:10:15.319Z,12.40
2022-10-29T07:12:46.921Z,12.50
2022-10-29T07:15:19.282Z,12.60
2022-10-29T07:17:58.693Z,12.60
2022-10-29T07:20:29.237Z,12.60
2022-10-29T07:23:02.249Z,12.70
2022-10-29T07:25:33.558Z,12.80
2022-10-29T07:28:07.079Z,12.80
2022-10-29T07:30:37.827Z,12.70
2022-10-29T07:33:10.203Z,12.70
2022-10-29T07:35:40.405Z,12.70
2022-10-29T07:38:15.207Z,12.70
2022-10-29T07:40:55.410Z,12.80
2022-10-29T07:43:26.683Z,12.80
2022-10-29T07:45:56.659Z,13.00
2022-10-29T07:48:26.616Z,13.20
2022-10-29T07:50:56.549Z,13.40
2022-10-29T07:53:31.637Z,13.70
2022-10-29T07:56:02.451Z,13.90
2022-10-29T07:58:33.536Z,14.20
2022-10-29T08:01:03.627Z,14.50
2022-10-29T08:03:34.194Z,14.90
2022-10-29T08:06:04.165Z,15.10
2022-10-29T08:08:38.568Z,15.20
2022-10-29T08:11:08.767Z,15.20
2022-10-29T08:13:39.486Z,15.20
2022-10-29T08:16:10.009Z,15.20
2022-10-29T08:18:40.510Z,15.20
2022-10-29T08:21:10.545Z,15.30
2022-10-29T08:23:43.575Z,15.40
2022-10-29T08:26:15.051Z,15.60
2022-10-29T08:28:46.209Z,15.70
2022-10-29T08:31:16.109Z,15.80
2022-10-29T08:33:46.584Z,15.80
2022-10-29T08:36:16.829Z,15.90
2022-10-29T08:38:50.252Z,15.80
2022-10-29T08:41:39.920Z,15.70
2022-10-29T08:44:24.639Z,15.60
2022-10-29T08:47:02.484Z,15.50
2022-10-29T08:49:41.764Z,15.50
2022-10-29T08:52:20.216Z,15.40
2022-10-29T08:55:00.474Z,15.50
2022-10-29T08:57:36.529Z,15.60
2022-10-29T09:00:09.525Z,15.70
2022-10-29T09:02:40.464Z,15.70
2022-10-29T09:05:16.207Z,15.70
2022-10-29T09:08:04.787Z,15.80
2022-10-29T09:10:46.219Z,15.80
2022-10-29T09:13:31.820Z,15.70
2022-10-29T09:16:31.628Z,15.80
2022-10-29T09:19:27.809Z,16.00
2022-10-29T09:22:04.179Z,16.20
2022-10-29T09:24:38.624Z,16.30
2022-10-29T09:27:18.774Z,16.30
2022-10-29T09:30:00.908Z,16.30
2022-10-29T09:32:36.479Z,16.30
2022-10-29T09:35:11.940Z,16.40
2022-10-29T09:37:48.468Z,16.40
2022-10-29T09:40:33.857Z,16.60
2022-10-29T09:43:11.109Z,16.60
2022-10-29T09:45:48.066Z,16.60
2022-10-29T09:48:23.291Z,16.60
2022-10-29T09:51:01.650Z,16.40
2022-10-29T09:53:32.721Z,16.30
2022-10-29T09:56:02.682Z,16.30
2022-10-29T09:58:42.503Z,16.20
2022-10-29T10:01:12.528Z,16.30
2022-10-29T10:03:46.113Z,16.40
2022-10-29T10:06:18.456Z,16.40
2022-10-29T10:09:05.103Z,16.40
2022-10-29T10:11:40.746Z,16.30
2022-10-29T10:14:19.755Z,16.30
2022-10-29T10:16:49.901Z,16.30
2022-10-29T10:19:26.477Z,16.30
2022-10-29T10:22:01.625Z,16.30
2022-10-29T10:24:33.983Z,16.30
2022-10-29T10:27:05.865Z,16.40
2022-10-29T10:29:42.438Z,16.40
2022-10-29T10:32:17.918Z,16.50
2022-10-29T10:34:49.841Z,16.60
2022-10-29T10:37:26.853Z,16.70
2022-10-29T10:40:03.847Z,16.90
2022-10-29T10:42:37.258Z,17.00
2022-10-29T10:45:18.318Z,17.20
2022-10-29T10:47:52.550Z,17.30
2022-10-29T10:50:25.014Z,17.30
2022-10-29T10:52:58.724Z,17.40
2022-10-29T10:55:31.670Z,17.70
2022-10-29T10:58:07.018Z,18.00
2022-10-29T11:00:45.079Z,18.00
2022-10-29T11:03:21.036Z,18.00
2022-10-29T11:05:56.799Z,17.90
2022-10-29T11:08:31.346Z,18.00
2022-10-29T11:11:07.833Z,18.10
2022-10-29T11:13:42.278Z,18.30
2022-10-29T11:16:23.748Z,18.50
2022-10-29T11:18:58.583Z,18.70
2022-10-29T11:21:33.416Z,18.90
2022-10-29T11:24:10.347Z,19.00
2022-10-29T11:26:44.333Z,19.00
2022-10-29T11:29:23.509Z,18.60
2022-10-29T11:32:04.178Z,18.60
2022-10-29T11:34:46.436Z,18.50
2022-10-29T11:37:23.256Z,18.40
2022-10-29T11:39:59.330Z,18.40
2022-10-29T11:42:29.614Z,18.60
2022-10-29T11:45:02.065Z,18.60
2022-10-29T11:47:52.159Z,18.50
2022-10-29T11:50:35.680Z,18.30
2022-10-29T11:53:17.098Z,18.00
2022-10-29T11:55:54.781Z,17.80
2022-10-29T11:58:40.592Z,17.70
2022-10-29T12:01:29.110Z,17.60
2022-10-29T12:04:24.126Z,17.50
2022-10-29T12:07:12.472Z,17.50
2022-10-29T12:10:14.534Z,17.50
2022-10-29T12:12:55.435Z,17.50
2022-10-29T12:15:30.778Z,17.70
2022-10-29T12:18:10.405Z,17.60
2022-10-29T12:20:49.119Z,17.70
2022-10-29T12:23:31.192Z,17.80
2022-10-29T12:26:13.503Z,17.90
2022-10-29T12:28:53.656Z,18.00
2022-10-29T12:31:30.114Z,17.80
2022-10-29T12:34:06.648Z,17.70
2022-10-29T12:36:46.310Z,17.50
2022-10-29T12:39:22.579Z,17.20
2022-10-29T12:41:56.197Z,17.10
2022-10-29T12:44:31.234Z,17.40
2022-10-29T12:47:08.346Z,17.50
2022-10-29T12:49:53.468Z,17.40
2022-10-29T12:52:41.575Z,17.20
2022-10-29T12:55:15.212Z,17.10
2022-10-29T12:57:46.554Z,17.00
2022-10-29T13:00:36.868Z,16.90
2022-10-29T13:03:07.725Z,16.90
2022-10-29T13:05:44.433Z,16.80
2022-10-29T13:08:37.449Z,16.80
2022-10-29T13:11:24.783Z,17.00
2022-10-29T13:14:01.704Z,17.10
2022-10-29T13:16:34.658Z,17.30
2022-10-29T13:19:25.664Z,17.50
2022-10-29T13:22:25.509Z,17.50
2022-10-29T13:25:25.269Z,17.30
2022-10-29T13:27:59.094Z,17.10
2022-10-29T13:30:32.721Z,17.00
2022-10-29T13:33:03.072Z,16.90
2022-10-29T13:35:54.322Z,16.80
2022-10-29T13:38:57.951Z,16.70
2022-10-29T13:41:44.002Z,16.60
2022-10-29T13:44:22.163Z,16.60
2022-10-29T13:46:55.629Z,16.60
2022-10-29T13:49:31.187Z,16.50
2022-10-29T13:52:03.923Z,16.60
2022-10-29T13:54:41.013Z,16.60
2022-10-29T13:57:31.699Z,16.50
2022-10-29T14:00:09.156Z,16.60
2022-10-29T14:02:56.096Z,16.50
2022-10-29T14:05:32.565Z,16.60
2022-10-29T14:08:08.979Z,16.60
2022-10-29T14:10:48.471Z,16.60
2022-10-29T14:13:33.333Z,16.60
2022-10-29T14:16:14.700Z,16.60
2022-10-29T14:18:49.018Z,16.60
2022-10-29T14:21:21.041Z,16.50
2022-10-29T14:24:04.384Z,16.50
2022-10-29T14:26:39.785Z,16.50
2022-10-29T14:29:23.515Z,16.50
2022-10-29T14:32:15.939Z,16.50
2022-10-29T14:34:47.732Z,16.50
2022-10-29T14:37:33.423Z,16.50
2022-10-29T14:40:07.040Z,16.50
2022-10-29T14:42:39.823Z,16.50
2022-10-29T14:45:22.740Z,16.50
2022-10-29T14:47:58.720Z,16.40
2022-10-29T14:50:31.052Z,16.40
2022-10-29T14:53:05.731Z,16.40
2022-10-29T14:55:42.143Z,16.40
2022-10-29T14:58:21.363Z,16.30
2022-10-29T15:00:58.145Z,16.30
2022-10-29T15:03:34.575Z,16.30
2022-10-29T15:06:20.169Z,16.20
2022-10-29T15:08:59.693Z,16.10
2022-10-29T15:11:53.098Z,16.10
2022-10-29T15:14:34.566Z,16.10
2022-10-29T15:17:10.792Z,16.00
2022-10-29T15:19:47.165Z,15.90
2022-10-29T15:22:24.041Z,16.00
2022-10-29T15:24:55.295Z,15.90
2022-10-29T15:27:33.045Z,15.80
2022-10-29T15:30:03.369Z,15.80
2022-10-29T15:32:35.107Z,15.70
2022-10-29T15:35:14.179Z,15.50
2022-10-29T15:37:46.982Z,15.40
2022-10-29T15:40:20.527Z,15.30
2022-10-29T15:42:52.793Z,15.30
2022-10-29T15:45:28.512Z,15.20
2022-10-29T15:48:01.085Z,15.10
2022-10-29T15:50:42.870Z,15.10
2022-10-29T15:53:18.425Z,15.00
2022-10-29T15:55:56.894Z,14.90
2022-10-29T15:58:38.548Z,14.80
2022-10-29T16:01:09.677Z,14.70
2022-10-29T16:03:43.143Z,14.70
2022-10-29T16:06:22.360Z,14.50
2022-10-29T16:09:00.269Z,14.40
2022-10-29T16:11:30.769Z,14.20
2022-10-29T16:14:05.310Z,14.00
2022-10-29T16:16:36.852Z,13.70
2022-10-29T16:19:08.592Z,13.50
2022-10-29T16:21:42.907Z,13.30
2022-10-29T16:24:18.581Z,13.30
2022-10-29T16:26:48.613Z,13.20
2022-10-29T16:29:23.242Z,13.10
2022-10-29T16:31:53.236Z,13.00
2022-10-29T16:34:24.710Z,12.80
2022-10-29T16:36:57.404Z,12.70
2022-10-29T16:39:29.110Z,12.70
2022-10-29T16:42:00.997Z,12.50
2022-10-29T16:44:31.326Z,12.40
2022-10-29T16:47:01.290Z,12.40
2022-10-29T16:49:33.727Z,12.50
2022-10-29T16:52:06.491Z,12.40
2022-10-29T16:54:37.501Z,12.50
2022-10-29T16:57:07.414Z,12.70
2022-10-29T16:59:39.432Z,12.70
2022-10-29T17:02:10.753Z,12.70
2022-10-29T17:04:41.582Z,12.70
2022-10-29T17:07:18.014Z,12.70
2022-10-29T17:09:50.869Z,12.50
2022-10-29T17:12:20.800Z,12.50
2022-10-29T17:14:51.704Z,12.50
2022-10-29T17:17:23.338Z,12.60
2022-10-29T17:19:53.845Z,12.60
2022-10-29T17:22:26.388Z,12.50
2022-10-29T17:24:57.086Z,12.50
2022-10-29T17:27:27.399Z,12.40
2022-10-29T17:29:58.252Z,12.40
2022-10-29T17:32:32.653Z,12.30
2022-10-29T17:35:03.379Z,12.20
2022-10-29T17:37:35.983Z,12.20
2022-10-29T17:40:08.022Z,12.20
2022-10-29T17:42:38.370Z,12.20
2022-10-29T17:45:14.042Z,12.10
2022-10-29T17:47:44.224Z,12.00
2022-10-29T17:50:14.765Z,12.10
2022-10-29T17:52:52.758Z,12.00
2022-10-29T17:55:23.057Z,11.90
2022-10-29T17:57:53.459Z,11.90
2022-10-29T18:00:23.978Z,12.00
2022-10-29T18:05:30.156Z,11.70
2022-10-29T18:08:03.084Z,11.80
2022-10-29T18:10:38.032Z,11.70
2022-10-29T18:13:08.811Z,11.80
2022-10-29T18:15:38.857Z,11.90
2022-10-29T18:18:09.566Z,11.70
2022-10-29T18:20:44.678Z,11.70
2022-10-29T18:23:18.217Z,11.60
2022-10-29T18:26:00.385Z,11.70
2022-10-29T18:28:30.894Z,11.70
2022-10-29T18:31:01.183Z,11.70
2022-10-29T18:33:32.161Z,11.60
2022-10-29T18:36:02.074Z,11.70
2022-10-29T18:38:34.849Z,11.80
2022-10-29T18:41:04.789Z,11.70
2022-10-29T18:43:37.518Z,11.70
2022-10-29T18:46:09.105Z,11.60
2022-10-29T18:48:40.941Z,11.50
2022-10-29T18:51:13.038Z,11.60
2022-10-29T18:53:46.253Z,11.60
2022-10-29T18:56:17.432Z,11.60
2022-10-29T18:58:48.418Z,11.50
2022-10-29T19:01:23.540Z,11.40
2022-10-29T19:03:56.384Z,11.40
2022-10-29T19:06:28.447Z,11.40
2022-10-29T19:09:03.362Z,11.50
2022-10-29T19:11:33.463Z,11.60
2022-10-29T19:14:05.869Z,11.50
2022-10-29T19:16:36.407Z,11.50
2022-10-29T19:19:08.771Z,11.60
2022-10-29T19:21:40.429Z,11.40
2022-10-29T19:24:16.578Z,11.40
2022-10-29T19:26:46.867Z,11.50
2022-10-29T19:29:17.782Z,11.60
2022-10-29T19:31:48.971Z,11.60
2022-10-29T19:34:19.716Z,11.60
2022-10-29T19:36:49.665Z,11.70
2022-10-29T19:39:28.999Z,11.60
2022-10-29T19:41:59.612Z,11.70
2022-10-29T19:44:30.491Z,11.80
2022-10-29T19:47:00.401Z,11.70
2022-10-29T19:49:30.983Z,11.70
2022-10-29T19:52:01.045Z,11.70
2022-10-29T19:54:33.939Z,11.70
2022-10-29T19:57:03.905Z,11.80
2022-10-29T19:59:34.540Z,11.80
2022-10-29T20:02:04.776Z,12.00
2022-10-29T20:04:35.409Z,12.00
2022-10-29T20:07:05.334Z,12.00
2022-10-29T20:09:38.785Z,12.00
2022-10-29T20:12:09.504Z,12.00
2022-10-29T20:14:40.196Z,11.90
2022-10-29T20:17:11.285Z,11.80
2022-10-29T20:19:41.640Z,11.80
2022-10-29T20:22:11.725Z,11.80
2022-10-29T20:24:48.093Z,11.80
2022-10-29T20:27:18.013Z,11.90
2022-10-29T20:29:49.590Z,12.00
2022-10-29T20:32:31.718Z,11.90
2022-10-29T20:35:03.684Z,11.90
2022-10-29T20:37:36.387Z,11.80
2022-10-29T20:40:09.838Z,11.80
2022-10-29T20:42:41.354Z,12.10
2022-10-29T20:45:12.206Z,11.80
2022-10-29T20:47:45.528Z,11.80
2022-10-29T20:50:16.710Z,11.70
2022-10-29T20:52:48.901Z,11.70
2022-10-29T20:55:31.849Z,11.60
2022-10-29T20:58:05.312Z,11.50
2022-10-29T21:00:35.557Z,11.40
2022-10-29T21:03:15.092Z,11.60
2022-10-29T21:05:48.068Z,11.40
2022-10-29T21:08:18.675Z,11.30
2022-10-29T21:11:01.814Z,11.40
2022-10-29T21:13:34.761Z,11.30
2022-10-29T21:16:11.051Z,11.30
2022-10-29T21:18:47.915Z,11.30
2022-10-29T21:21:25.366Z,11.20
2022-10-29T21:23:56.019Z,11.20
2022-10-29T21:26:35.004Z,11.20
2022-10-29T21:29:08.369Z,11.10
2022-10-29T21:31:38.964Z,11.20
2022-10-29T21:34:09.641Z,11.10
2022-10-29T21:36:39.780Z,11.00
2022-10-29T21:39:12.451Z,11.00
2022-10-29T21:41:45.432Z,10.80
2022-10-29T21:44:19.221Z,10.80
2022-10-29T21:46:52.075Z,10.70
2022-10-29T21:49:24.345Z,10.60
2022-10-29T21:51:54.396Z,10.60
2022-10-29T21:54:28.259Z,10.40
2022-10-29T21:57:01.241Z,10.50
2022-10-29T21:59:31.879Z,10.50
2022-10-29T22:02:07.663Z,10.50
2022-10-29T22:04:38.240Z,10.60
2022-10-29T22:07:08.091Z,10.30
2022-10-29T22:09:39.096Z,10.30
2022-10-29T22:12:11.737Z,10.30
2022-10-29T22:14:42.487Z,10.20
2022-10-29T22:17:12.404Z,10.20
2022-10-29T22:19:42.993Z,10.10
2022-10-29T22:22:12.934Z,10.00
2022-10-29T22:24:43.415Z,9.90
2022-10-29T22:27:16.117Z,10.00
2022-10-29T22:29:50.788Z,10.00
2022-10-29T22:32:24.948Z,9.90
2022-10-29T22:34:56.232Z,9.80
2022-10-29T22:37:26.115Z,9.80
2022-10-29T22:39:56.864Z,9.90
2022-10-29T22:42:29.661Z,9.80
2022-10-29T22:45:04.249Z,9.80
2022-10-29T22:47:34.149Z,9.70
2022-10-29T22:50:12.203Z,9.70
2022-10-29T22:52:43.977Z,9.80
2022-10-29T22:55:16.643Z,9.90
2022-10-29T22:57:49.117Z,10.20
2022-10-29T23:00:20.608Z,9.80
2022-10-29T23:02:50.600Z,9.60
2022-10-29T23:05:21.220Z,9.50
2022-10-29T23:07:52.387Z,9.50
2022-10-29T23:10:24.666Z,9.50
2022-10-29T23:12:57.155Z,9.50
2022-10-29T23:15:27.774Z,9.60
2022-10-29T23:17:57.946Z,9.60
2022-10-29T23:20:28.316Z,9.70
2022-10-29T23:22:58.483Z,9.90
2022-10-29T23:25:29.234Z,10.40
2022-10-29T23:28:03.144Z,12.00
2022-10-29T23:30:34.271Z,12.90
2022-10-29T23:33:07.107Z,13.90
2022-10-29T23:35:40.546Z,14.20
2022-10-29T23:38:12.685Z,14.30
2022-10-29T23:40:43.156Z,14.50
2022-10-29T23:43:16.680Z,14.70
2022-10-29T23:45:47.152Z,15.00
2022-10-29T23:48:17.158Z,15.20
2022-10-29T23:50:47.864Z,15.20
2022-10-29T23:53:18.411Z,15.20
2022-10-29T23:55:49.335Z,15.10
2022-10-29T23:58:21.816Z,15.10
